sensor_id;sensor_type;location;lat;lon;timestamp;P1;durP1;ratioP1;P2;durP2;ratioP2
69841;SDS011;57138;51.326;-0.068;2023-04-03T00:00:21;15.85;;;1.88;;
69841;SDS011;57138;51.326;-0.068;2023-04-03T00:02:46;12.63;;;1.95;;
69841;SDS011;57138;51.326;-0.068;2023-04-03T00:05:12;8.07;;;1.92;;
69841;SDS011;57138;51.326;-0.068;2023-04-03T00:07:37;16.58;;;2.33;;
69841;SDS011;57138;51.326;-0.068;2023-04-03T00:10:03;12.77;;;2.75;;
69841;SDS011;57138;51.326;-0.068;2023-04-03T00:12:28;15.48;;;2.20;;
69841;SDS011;57138;51.326;-0.068;2023-04-03T00:14:54;11.48;;;1.65;;
69841;SDS011;57138;51.326;-0.068;2023-04-03T00:17:19;14.18;;;2.30;;
69841;SDS011;57138;51.326;-0.068;2023-04-03T00:19:45;10.20;;;1.60;;
69841;SDS011;57138;51.326;-0.068;2023-04-03T00:22:10;14.45;;;1.75;;
69841;SDS011;57138;51.326;-0.068;2023-04-03T00:24:35;12.50;;;2.08;;
69841;SDS011;57138;51.326;-0.068;2023-04-03T00:27:01;17.75;;;3.33;;
69841;SDS011;57138;51.326;-0.068;2023-04-03T00:29:27;14.32;;;2.00;;
69841;SDS011;57138;51.326;-0.068;2023-04-03T00:31:52;13.45;;;1.92;;
69841;SDS011;57138;51.326;-0.068;2023-04-03T00:34:18;15.63;;;1.77;;
69841;SDS011;57138;51.326;-0.068;2023-04-03T00:36:44;12.50;;;2.47;;
69841;SDS011;57138;51.326;-0.068;2023-04-03T00:39:10;9.38;;;1.92;;
69841;SDS011;57138;51.326;-0.068;2023-04-03T00:41:36;14.85;;;2.38;;
69841;SDS011;57138;51.326;-0.068;2023-04-03T00:44:17;10.13;;;2.92;;
69841;SDS011;57138;51.326;-0.068;2023-04-03T00:46:47;7.63;;;2.08;;
69841;SDS011;57138;51.326;-0.068;2023-04-03T00:49:12;36.90;;;2.70;;
69841;SDS011;57138;51.326;-0.068;2023-04-03T00:51:38;9.52;;;2.22;;
69841;SDS011;57138;51.326;-0.068;2023-04-03T00:54:04;14.88;;;3.15;;
69841;SDS011;57138;51.326;-0.068;2023-04-03T00:56:32;9.00;;;2.40;;
69841;SDS011;57138;51.326;-0.068;2023-04-03T00:58:59;17.25;;;2.17;;
69841;SDS011;57138;51.326;-0.068;2023-04-03T01:01:29;14.48;;;2.72;;
69841;SDS011;57138;51.326;-0.068;2023-04-03T01:03:55;15.98;;;2.80;;
69841;SDS011;57138;51.326;-0.068;2023-04-03T01:06:23;34.00;;;4.22;;
69841;SDS011;57138;51.326;-0.068;2023-04-03T01:08:53;14.00;;;2.35;;
69841;SDS011;57138;51.326;-0.068;2023-04-03T01:11:20;21.45;;;1.90;;
69841;SDS011;57138;51.326;-0.068;2023-04-03T01:13:46;12.25;;;2.25;;
69841;SDS011;57138;51.326;-0.068;2023-04-03T01:16:12;8.95;;;2.58;;
69841;SDS011;57138;51.326;-0.068;2023-04-03T01:18:38;15.25;;;3.05;;
69841;SDS011;57138;51.326;-0.068;2023-04-03T01:26:17;20.60;;;2.13;;
69841;SDS011;57138;51.326;-0.068;2023-04-03T01:28:43;14.30;;;2.25;;
69841;SDS011;57138;51.326;-0.068;2023-04-03T01:34:11;7.70;;;1.52;;
69841;SDS011;57138;51.326;-0.068;2023-04-03T01:36:37;10.27;;;1.92;;
69841;SDS011;57138;51.326;-0.068;2023-04-03T01:39:02;10.25;;;2.22;;
69841;SDS011;57138;51.326;-0.068;2023-04-03T01:41:28;13.82;;;2.47;;
69841;SDS011;57138;51.326;-0.068;2023-04-03T01:43:55;8.35;;;2.28;;
69841;SDS011;57138;51.326;-0.068;2023-04-03T01:46:21;10.90;;;2.28;;
69841;SDS011;57138;51.326;-0.068;2023-04-03T01:48:47;13.25;;;2.53;;
69841;SDS011;57138;51.326;-0.068;2023-04-03T01:51:12;20.50;;;4.13;;
69841;SDS011;57138;51.326;-0.068;2023-04-03T01:53:38;16.33;;;4.38;;
69841;SDS011;57138;51.326;-0.068;2023-04-03T01:56:03;11.13;;;1.85;;
69841;SDS011;57138;51.326;-0.068;2023-04-03T01:58:29;8.70;;;2.42;;
69841;SDS011;57138;51.326;-0.068;2023-04-03T02:00:55;9.80;;;2.40;;
69841;SDS011;57138;51.326;-0.068;2023-04-03T02:03:20;19.20;;;2.97;;
69841;SDS011;57138;51.326;-0.068;2023-04-03T02:05:46;13.27;;;2.60;;
69841;SDS011;57138;51.326;-0.068;2023-04-03T02:08:12;13.10;;;2.60;;
69841;SDS011;57138;51.326;-0.068;2023-04-03T02:10:38;12.05;;;2.60;;
69841;SDS011;57138;51.326;-0.068;2023-04-03T02:13:04;13.68;;;3.03;;
69841;SDS011;57138;51.326;-0.068;2023-04-03T02:15:30;13.57;;;2.95;;
69841;SDS011;57138;51.326;-0.068;2023-04-03T02:17:55;10.38;;;2.00;;
69841;SDS011;57138;51.326;-0.068;2023-04-03T02:20:20;12.38;;;2.25;;
69841;SDS011;57138;51.326;-0.068;2023-04-03T02:22:46;13.48;;;2.42;;
69841;SDS011;57138;51.326;-0.068;2023-04-03T02:25:11;10.68;;;2.13;;
69841;SDS011;57138;51.326;-0.068;2023-04-03T02:27:37;14.07;;;2.28;;
69841;SDS011;57138;51.326;-0.068;2023-04-03T02:30:03;9.35;;;2.55;;
69841;SDS011;57138;51.326;-0.068;2023-04-03T02:32:30;11.88;;;1.73;;
69841;SDS011;57138;51.326;-0.068;2023-04-03T02:34:56;11.00;;;1.83;;
69841;SDS011;57138;51.326;-0.068;2023-04-03T02:37:21;18.42;;;2.63;;
69841;SDS011;57138;51.326;-0.068;2023-04-03T02:39:46;11.40;;;2.22;;
69841;SDS011;57138;51.326;-0.068;2023-04-03T02:42:12;11.27;;;2.28;;
69841;SDS011;57138;51.326;-0.068;2023-04-03T02:44:38;11.77;;;2.13;;
69841;SDS011;57138;51.326;-0.068;2023-04-03T02:47:04;10.52;;;2.50;;
69841;SDS011;57138;51.326;-0.068;2023-04-03T02:49:30;11.13;;;1.63;;
69841;SDS011;57138;51.326;-0.068;2023-04-03T02:51:55;14.32;;;2.55;;
69841;SDS011;57138;51.326;-0.068;2023-04-03T02:54:21;15.30;;;1.92;;
69841;SDS011;57138;51.326;-0.068;2023-04-03T02:56:48;14.45;;;3.70;;
69841;SDS011;57138;51.326;-0.068;2023-04-03T02:59:13;8.43;;;1.83;;
69841;SDS011;57138;51.326;-0.068;2023-04-03T03:01:39;8.07;;;2.00;;
69841;SDS011;57138;51.326;-0.068;2023-04-03T03:04:04;10.07;;;1.83;;
69841;SDS011;57138;51.326;-0.068;2023-04-03T03:06:30;14.32;;;2.30;;
69841;SDS011;57138;51.326;-0.068;2023-04-03T03:08:55;12.82;;;2.63;;
69841;SDS011;57138;51.326;-0.068;2023-04-03T03:11:20;15.60;;;2.58;;
69841;SDS011;57138;51.326;-0.068;2023-04-03T03:13:46;10.45;;;2.30;;
69841;SDS011;57138;51.326;-0.068;2023-04-03T03:16:11;10.50;;;2.55;;
69841;SDS011;57138;51.326;-0.068;2023-04-03T03:18:37;12.95;;;2.78;;
69841;SDS011;57138;51.326;-0.068;2023-04-03T03:21:02;21.98;;;3.08;;
69841;SDS011;57138;51.326;-0.068;2023-04-03T03:23:29;9.13;;;2.17;;
69841;SDS011;57138;51.326;-0.068;2023-04-03T03:26:04;12.85;;;2.60;;
69841;SDS011;57138;51.326;-0.068;2023-04-03T03:28:31;19.17;;;2.20;;
69841;SDS011;57138;51.326;-0.068;2023-04-03T03:30:57;11.73;;;1.88;;
69841;SDS011;57138;51.326;-0.068;2023-04-03T03:33:23;9.30;;;2.35;;
69841;SDS011;57138;51.326;-0.068;2023-04-03T03:35:48;14.60;;;2.50;;
69841;SDS011;57138;51.326;-0.068;2023-04-03T03:38:14;10.82;;;2.22;;
69841;SDS011;57138;51.326;-0.068;2023-04-03T03:40:40;16.92;;;3.42;;
69841;SDS011;57138;51.326;-0.068;2023-04-03T03:43:05;11.85;;;2.10;;
69841;SDS011;57138;51.326;-0.068;2023-04-03T03:45:31;10.20;;;2.60;;
69841;SDS011;57138;51.326;-0.068;2023-04-03T03:47:56;19.13;;;2.65;;
69841;SDS011;57138;51.326;-0.068;2023-04-03T03:50:21;17.08;;;3.00;;
69841;SDS011;57138;51.326;-0.068;2023-04-03T03:52:47;13.07;;;3.40;;
69841;SDS011;57138;51.326;-0.068;2023-04-03T03:55:12;15.40;;;3.38;;
69841;SDS011;57138;51.326;-0.068;2023-04-03T03:57:38;17.27;;;3.55;;
69841;SDS011;57138;51.326;-0.068;2023-04-03T04:00:03;17.40;;;2.30;;
69841;SDS011;57138;51.326;-0.068;2023-04-03T04:02:29;10.80;;;2.50;;
69841;SDS011;57138;51.326;-0.068;2023-04-03T04:04:55;10.55;;;2.53;;
69841;SDS011;57138;51.326;-0.068;2023-04-03T04:07:21;12.98;;;2.92;;
69841;SDS011;57138;51.326;-0.068;2023-04-03T04:09:47;8.70;;;2.75;;
69841;SDS011;57138;51.326;-0.068;2023-04-03T04:12:12;20.65;;;3.78;;
69841;SDS011;57138;51.326;-0.068;2023-04-03T04:14:37;10.70;;;2.95;;
69841;SDS011;57138;51.326;-0.068;2023-04-03T04:17:03;17.33;;;3.45;;
69841;SDS011;57138;51.326;-0.068;2023-04-03T04:19:28;9.20;;;2.65;;
69841;SDS011;57138;51.326;-0.068;2023-04-03T04:21:54;12.35;;;3.50;;
69841;SDS011;57138;51.326;-0.068;2023-04-03T04:24:19;15.88;;;3.53;;
69841;SDS011;57138;51.326;-0.068;2023-04-03T04:26:45;21.00;;;4.13;;
69841;SDS011;57138;51.326;-0.068;2023-04-03T04:29:10;11.88;;;3.70;;
69841;SDS011;57138;51.326;-0.068;2023-04-03T04:31:36;14.88;;;3.75;;
69841;SDS011;57138;51.326;-0.068;2023-04-03T04:34:01;17.42;;;4.57;;
69841;SDS011;57138;51.326;-0.068;2023-04-03T04:36:26;10.98;;;3.08;;
69841;SDS011;57138;51.326;-0.068;2023-04-03T04:38:52;14.98;;;3.40;;
69841;SDS011;57138;51.326;-0.068;2023-04-03T04:41:20;18.85;;;3.40;;
69841;SDS011;57138;51.326;-0.068;2023-04-03T04:43:47;13.73;;;3.30;;
69841;SDS011;57138;51.326;-0.068;2023-04-03T04:46:13;18.63;;;4.65;;
69841;SDS011;57138;51.326;-0.068;2023-04-03T04:48:39;17.63;;;3.72;;
69841;SDS011;57138;51.326;-0.068;2023-04-03T04:51:05;26.45;;;4.28;;
69841;SDS011;57138;51.326;-0.068;2023-04-03T04:53:33;21.35;;;3.53;;
69841;SDS011;57138;51.326;-0.068;2023-04-03T04:56:02;18.52;;;3.30;;
69841;SDS011;57138;51.326;-0.068;2023-04-03T04:58:28;13.02;;;3.75;;
69841;SDS011;57138;51.326;-0.068;2023-04-03T05:01:07;13.70;;;3.25;;
69841;SDS011;57138;51.326;-0.068;2023-04-03T05:03:34;15.88;;;3.50;;
69841;SDS011;57138;51.326;-0.068;2023-04-03T05:06:00;20.98;;;4.05;;
69841;SDS011;57138;51.326;-0.068;2023-04-03T05:08:25;15.30;;;3.28;;
69841;SDS011;57138;51.326;-0.068;2023-04-03T05:10:51;13.00;;;3.22;;
69841;SDS011;57138;51.326;-0.068;2023-04-03T05:13:18;17.58;;;4.30;;
69841;SDS011;57138;51.326;-0.068;2023-04-03T05:15:43;13.80;;;3.63;;
69841;SDS011;57138;51.326;-0.068;2023-04-03T05:18:09;18.80;;;4.90;;
69841;SDS011;57138;51.326;-0.068;2023-04-03T05:20:34;16.52;;;3.55;;
69841;SDS011;57138;51.326;-0.068;2023-04-03T05:23:00;16.23;;;3.58;;
69841;SDS011;57138;51.326;-0.068;2023-04-03T05:25:26;18.35;;;3.60;;
69841;SDS011;57138;51.326;-0.068;2023-04-03T05:27:52;16.67;;;4.07;;
69841;SDS011;57138;51.326;-0.068;2023-04-03T05:30:18;14.45;;;2.92;;
69841;SDS011;57138;51.326;-0.068;2023-04-03T05:32:43;25.13;;;3.78;;
69841;SDS011;57138;51.326;-0.068;2023-04-03T05:35:09;14.43;;;3.33;;
69841;SDS011;57138;51.326;-0.068;2023-04-03T05:37:35;19.30;;;4.45;;
69841;SDS011;57138;51.326;-0.068;2023-04-03T05:40:01;12.05;;;4.28;;
69841;SDS011;57138;51.326;-0.068;2023-04-03T05:42:27;18.27;;;3.53;;
69841;SDS011;57138;51.326;-0.068;2023-04-03T05:44:52;16.85;;;3.85;;
69841;SDS011;57138;51.326;-0.068;2023-04-03T05:47:18;17.35;;;4.00;;
69841;SDS011;57138;51.326;-0.068;2023-04-03T05:49:44;23.23;;;5.07;;
69841;SDS011;57138;51.326;-0.068;2023-04-03T05:52:32;13.48;;;4.60;;
69841;SDS011;57138;51.326;-0.068;2023-04-03T05:54:58;24.08;;;4.07;;
69841;SDS011;57138;51.326;-0.068;2023-04-03T05:57:23;19.30;;;3.70;;
69841;SDS011;57138;51.326;-0.068;2023-04-03T05:59:49;10.75;;;3.88;;
69841;SDS011;57138;51.326;-0.068;2023-04-03T06:02:16;26.85;;;3.85;;
69841;SDS011;57138;51.326;-0.068;2023-04-03T06:04:46;11.52;;;3.45;;
69841;SDS011;57138;51.326;-0.068;2023-04-03T06:07:16;22.35;;;4.13;;
69841;SDS011;57138;51.326;-0.068;2023-04-03T06:09:54;15.32;;;3.35;;
69841;SDS011;57138;51.326;-0.068;2023-04-03T06:12:21;19.13;;;4.00;;
69841;SDS011;57138;51.326;-0.068;2023-04-03T06:14:47;21.60;;;3.85;;
69841;SDS011;57138;51.326;-0.068;2023-04-03T06:17:13;13.40;;;4.43;;
69841;SDS011;57138;51.326;-0.068;2023-04-03T06:19:40;25.13;;;4.38;;
69841;SDS011;57138;51.326;-0.068;2023-04-03T06:22:05;13.25;;;3.83;;
69841;SDS011;57138;51.326;-0.068;2023-04-03T06:24:31;14.05;;;4.03;;
69841;SDS011;57138;51.326;-0.068;2023-04-03T06:26:57;18.92;;;4.53;;
69841;SDS011;57138;51.326;-0.068;2023-04-03T06:29:23;12.48;;;4.03;;
69841;SDS011;57138;51.326;-0.068;2023-04-03T06:31:49;17.45;;;3.30;;
69841;SDS011;57138;51.326;-0.068;2023-04-03T06:34:15;16.27;;;3.80;;
69841;SDS011;57138;51.326;-0.068;2023-04-03T06:36:42;16.02;;;3.60;;
69841;SDS011;57138;51.326;-0.068;2023-04-03T06:39:08;21.08;;;4.55;;
69841;SDS011;57138;51.326;-0.068;2023-04-03T06:41:38;17.48;;;4.03;;
69841;SDS011;57138;51.326;-0.068;2023-04-03T06:44:03;12.18;;;3.70;;
69841;SDS011;57138;51.326;-0.068;2023-04-03T06:46:29;21.40;;;3.63;;
69841;SDS011;57138;51.326;-0.068;2023-04-03T06:48:54;19.73;;;4.05;;
69841;SDS011;57138;51.326;-0.068;2023-04-03T06:51:24;14.32;;;3.33;;
69841;SDS011;57138;51.326;-0.068;2023-04-03T06:53:51;19.38;;;3.97;;
69841;SDS011;57138;51.326;-0.068;2023-04-03T06:56:18;16.35;;;3.30;;
69841;SDS011;57138;51.326;-0.068;2023-04-03T06:58:44;14.40;;;2.97;;
69841;SDS011;57138;51.326;-0.068;2023-04-03T07:01:11;15.18;;;3.90;;
69841;SDS011;57138;51.326;-0.068;2023-04-03T07:03:38;20.70;;;3.60;;
69841;SDS011;57138;51.326;-0.068;2023-04-03T07:06:04;14.40;;;3.80;;
69841;SDS011;57138;51.326;-0.068;2023-04-03T07:08:32;20.95;;;7.47;;
69841;SDS011;57138;51.326;-0.068;2023-04-03T07:10:58;20.55;;;8.60;;
69841;SDS011;57138;51.326;-0.068;2023-04-03T07:13:23;36.22;;;14.18;;
69841;SDS011;57138;51.326;-0.068;2023-04-03T07:15:49;37.58;;;15.38;;
69841;SDS011;57138;51.326;-0.068;2023-04-03T07:18:15;38.22;;;17.50;;
69841;SDS011;57138;51.326;-0.068;2023-04-03T07:20:42;34.50;;;14.05;;
69841;SDS011;57138;51.326;-0.068;2023-04-03T07:23:08;17.40;;;7.93;;
69841;SDS011;57138;51.326;-0.068;2023-04-03T07:25:34;21.10;;;5.22;;
69841;SDS011;57138;51.326;-0.068;2023-04-03T07:27:59;17.95;;;4.53;;
69841;SDS011;57138;51.326;-0.068;2023-04-03T07:30:24;16.88;;;6.53;;
69841;SDS011;57138;51.326;-0.068;2023-04-03T07:32:51;17.92;;;3.42;;
69841;SDS011;57138;51.326;-0.068;2023-04-03T07:35:17;17.27;;;3.92;;
69841;SDS011;57138;51.326;-0.068;2023-04-03T07:37:43;14.55;;;2.88;;
69841;SDS011;57138;51.326;-0.068;2023-04-03T07:40:08;17.33;;;4.60;;
69841;SDS011;57138;51.326;-0.068;2023-04-03T07:42:34;13.73;;;4.10;;
69841;SDS011;57138;51.326;-0.068;2023-04-03T07:45:01;11.90;;;3.65;;
69841;SDS011;57138;51.326;-0.068;2023-04-03T07:47:28;17.50;;;3.45;;
69841;SDS011;57138;51.326;-0.068;2023-04-03T07:49:53;9.18;;;2.90;;
69841;SDS011;57138;51.326;-0.068;2023-04-03T07:52:19;14.07;;;3.40;;
69841;SDS011;57138;51.326;-0.068;2023-04-03T07:54:44;12.20;;;3.20;;
69841;SDS011;57138;51.326;-0.068;2023-04-03T07:57:10;14.48;;;3.90;;
69841;SDS011;57138;51.326;-0.068;2023-04-03T07:59:35;17.02;;;4.18;;
69841;SDS011;57138;51.326;-0.068;2023-04-03T08:02:01;11.75;;;4.07;;
69841;SDS011;57138;51.326;-0.068;2023-04-03T08:04:26;14.48;;;3.45;;
69841;SDS011;57138;51.326;-0.068;2023-04-03T08:06:52;22.42;;;4.80;;
69841;SDS011;57138;51.326;-0.068;2023-04-03T08:09:18;13.52;;;3.35;;
69841;SDS011;57138;51.326;-0.068;2023-04-03T08:11:44;13.68;;;3.88;;
69841;SDS011;57138;51.326;-0.068;2023-04-03T08:14:10;11.57;;;3.75;;
69841;SDS011;57138;51.326;-0.068;2023-04-03T08:16:41;11.57;;;3.35;;
69841;SDS011;57138;51.326;-0.068;2023-04-03T08:19:08;16.17;;;4.25;;
69841;SDS011;57138;51.326;-0.068;2023-04-03T08:21:33;11.93;;;3.67;;
69841;SDS011;57138;51.326;-0.068;2023-04-03T08:23:59;10.23;;;3.85;;
69841;SDS011;57138;51.326;-0.068;2023-04-03T08:26:24;19.65;;;4.43;;
69841;SDS011;57138;51.326;-0.068;2023-04-03T08:28:51;15.60;;;4.72;;
69841;SDS011;57138;51.326;-0.068;2023-04-03T08:31:17;16.70;;;4.13;;
69841;SDS011;57138;51.326;-0.068;2023-04-03T08:33:44;19.52;;;4.13;;
69841;SDS011;57138;51.326;-0.068;2023-04-03T08:36:27;19.40;;;4.05;;
69841;SDS011;57138;51.326;-0.068;2023-04-03T08:38:54;15.15;;;5.10;;
69841;SDS011;57138;51.326;-0.068;2023-04-03T08:41:35;22.58;;;5.65;;
69841;SDS011;57138;51.326;-0.068;2023-04-03T08:44:24;16.17;;;5.53;;
69841;SDS011;57138;51.326;-0.068;2023-04-03T08:47:20;15.93;;;5.70;;
69841;SDS011;57138;51.326;-0.068;2023-04-03T08:49:58;15.82;;;5.82;;
69841;SDS011;57138;51.326;-0.068;2023-04-03T08:52:35;14.48;;;4.70;;
69841;SDS011;57138;51.326;-0.068;2023-04-03T08:55:05;20.27;;;5.60;;
69841;SDS011;57138;51.326;-0.068;2023-04-03T08:57:33;18.10;;;6.53;;
69841;SDS011;57138;51.326;-0.068;2023-04-03T09:00:07;13.07;;;5.28;;
69841;SDS011;57138;51.326;-0.068;2023-04-03T09:05:14;13.32;;;3.63;;
69841;SDS011;57138;51.326;-0.068;2023-04-03T09:07:46;12.07;;;3.95;;
69841;SDS011;57138;51.326;-0.068;2023-04-03T09:10:15;15.63;;;5.25;;
69841;SDS011;57138;51.326;-0.068;2023-04-03T09:12:50;15.85;;;5.85;;
69841;SDS011;57138;51.326;-0.068;2023-04-03T09:15:26;15.63;;;5.07;;
69841;SDS011;57138;51.326;-0.068;2023-04-03T09:23:15;16.10;;;5.70;;
69841;SDS011;57138;51.326;-0.068;2023-04-03T09:25:43;9.82;;;6.00;;
69841;SDS011;57138;51.326;-0.068;2023-04-03T09:28:09;15.15;;;6.00;;
69841;SDS011;57138;51.326;-0.068;2023-04-03T09:30:35;12.05;;;5.65;;
69841;SDS011;57138;51.326;-0.068;2023-04-03T09:33:02;10.40;;;4.95;;
69841;SDS011;57138;51.326;-0.068;2023-04-03T09:35:29;13.65;;;5.45;;
69841;SDS011;57138;51.326;-0.068;2023-04-03T09:38:01;12.93;;;5.97;;
69841;SDS011;57138;51.326;-0.068;2023-04-03T09:40:50;14.43;;;5.50;;
69841;SDS011;57138;51.326;-0.068;2023-04-03T09:43:52;13.07;;;5.82;;
69841;SDS011;57138;51.326;-0.068;2023-04-03T09:49:08;12.80;;;4.85;;
69841;SDS011;57138;51.326;-0.068;2023-04-03T09:51:37;14.27;;;6.13;;
69841;SDS011;57138;51.326;-0.068;2023-04-03T09:56:56;14.80;;;5.47;;
69841;SDS011;57138;51.326;-0.068;2023-04-03T09:59:27;15.23;;;5.45;;
69841;SDS011;57138;51.326;-0.068;2023-04-03T10:02:02;14.40;;;5.00;;
69841;SDS011;57138;51.326;-0.068;2023-04-03T10:04:40;10.80;;;4.15;;
69841;SDS011;57138;51.326;-0.068;2023-04-03T10:07:26;13.88;;;5.47;;
69841;SDS011;57138;51.326;-0.068;2023-04-03T10:09:57;11.57;;;5.32;;
69841;SDS011;57138;51.326;-0.068;2023-04-03T10:12:25;16.52;;;5.95;;
69841;SDS011;57138;51.326;-0.068;2023-04-03T10:14:58;12.10;;;5.50;;
69841;SDS011;57138;51.326;-0.068;2023-04-03T10:24:51;12.40;;;5.18;;
69841;SDS011;57138;51.326;-0.068;2023-04-03T10:54:17;12.23;;;5.15;;
69841;SDS011;57138;51.326;-0.068;2023-04-03T10:57:11;11.73;;;4.82;;
69841;SDS011;57138;51.326;-0.068;2023-04-03T10:59:44;15.25;;;4.90;;
69841;SDS011;57138;51.326;-0.068;2023-04-03T11:02:24;15.52;;;4.72;;
69841;SDS011;57138;51.326;-0.068;2023-04-03T11:04:55;14.80;;;5.45;;
69841;SDS011;57138;51.326;-0.068;2023-04-03T11:07:38;13.45;;;4.80;;
69841;SDS011;57138;51.326;-0.068;2023-04-03T11:10:13;12.60;;;5.78;;
69841;SDS011;57138;51.326;-0.068;2023-04-03T11:12:46;11.18;;;4.10;;
69841;SDS011;57138;51.326;-0.068;2023-04-03T11:15:27;11.95;;;4.25;;
69841;SDS011;57138;51.326;-0.068;2023-04-03T11:17:59;10.45;;;4.35;;
69841;SDS011;57138;51.326;-0.068;2023-04-03T11:20:31;13.02;;;4.38;;
69841;SDS011;57138;51.326;-0.068;2023-04-03T11:25:56;13.77;;;4.57;;
69841;SDS011;57138;51.326;-0.068;2023-04-03T11:28:32;12.00;;;4.35;;
69841;SDS011;57138;51.326;-0.068;2023-04-03T11:36:25;7.70;;;4.13;;
69841;SDS011;57138;51.326;-0.068;2023-04-03T11:38:58;8.50;;;3.85;;
69841;SDS011;57138;51.326;-0.068;2023-04-03T11:44:04;8.93;;;3.60;;
69841;SDS011;57138;51.326;-0.068;2023-04-03T11:46:51;8.90;;;3.55;;
69841;SDS011;57138;51.326;-0.068;2023-04-03T12:05:55;7.82;;;3.03;;
69841;SDS011;57138;51.326;-0.068;2023-04-03T12:08:28;8.52;;;2.92;;
69841;SDS011;57138;51.326;-0.068;2023-04-03T12:13:33;13.93;;;3.20;;
69841;SDS011;57138;51.326;-0.068;2023-04-03T12:16:00;11.73;;;3.38;;
69841;SDS011;57138;51.326;-0.068;2023-04-03T12:18:41;9.60;;;4.18;;
69841;SDS011;57138;51.326;-0.068;2023-04-03T12:48:18;22.23;;;8.57;;
69841;SDS011;57138;51.326;-0.068;2023-04-03T12:50:50;8.95;;;3.35;;
69841;SDS011;57138;51.326;-0.068;2023-04-03T12:53:18;7.75;;;3.65;;
69841;SDS011;57138;51.326;-0.068;2023-04-03T12:55:47;10.65;;;3.53;;
69841;SDS011;57138;51.326;-0.068;2023-04-03T13:01:04;8.27;;;3.33;;
69841;SDS011;57138;51.326;-0.068;2023-04-03T13:03:37;10.55;;;4.13;;
69841;SDS011;57138;51.326;-0.068;2023-04-03T13:06:06;7.38;;;3.67;;
69841;SDS011;57138;51.326;-0.068;2023-04-03T13:08:32;9.80;;;3.60;;
69841;SDS011;57138;51.326;-0.068;2023-04-03T13:13:27;6.88;;;3.20;;
69841;SDS011;57138;51.326;-0.068;2023-04-03T13:15:53;6.63;;;2.88;;
69841;SDS011;57138;51.326;-0.068;2023-04-03T13:18:35;8.63;;;3.65;;
69841;SDS011;57138;51.326;-0.068;2023-04-03T13:23:40;10.02;;;3.17;;
69841;SDS011;57138;51.326;-0.068;2023-04-03T13:26:10;10.38;;;3.22;;
69841;SDS011;57138;51.326;-0.068;2023-04-03T13:28:36;7.68;;;2.83;;
69841;SDS011;57138;51.326;-0.068;2023-04-03T13:31:27;18.38;;;4.38;;
69841;SDS011;57138;51.326;-0.068;2023-04-03T13:33:56;6.43;;;2.85;;
69841;SDS011;57138;51.326;-0.068;2023-04-03T13:36:37;9.60;;;3.22;;
69841;SDS011;57138;51.326;-0.068;2023-04-03T13:41:41;7.68;;;3.28;;
69841;SDS011;57138;51.326;-0.068;2023-04-03T13:46:54;10.57;;;3.22;;
69841;SDS011;57138;51.326;-0.068;2023-04-03T13:51:58;5.38;;;2.30;;
69841;SDS011;57138;51.326;-0.068;2023-04-03T13:54:28;6.07;;;2.45;;
69841;SDS011;57138;51.326;-0.068;2023-04-03T13:57:00;6.65;;;2.40;;
69841;SDS011;57138;51.326;-0.068;2023-04-03T14:04:29;10.52;;;2.30;;
69841;SDS011;57138;51.326;-0.068;2023-04-03T14:06:57;8.57;;;2.08;;
69841;SDS011;57138;51.326;-0.068;2023-04-03T14:09:24;9.45;;;2.38;;
69841;SDS011;57138;51.326;-0.068;2023-04-03T14:11:53;6.75;;;2.45;;
69841;SDS011;57138;51.326;-0.068;2023-04-03T14:14:22;5.18;;;1.95;;
69841;SDS011;57138;51.326;-0.068;2023-04-03T14:16:53;11.70;;;2.20;;
69841;SDS011;57138;51.326;-0.068;2023-04-03T14:21:47;8.55;;;2.95;;
69841;SDS011;57138;51.326;-0.068;2023-04-03T14:24:13;16.00;;;3.17;;
69841;SDS011;57138;51.326;-0.068;2023-04-03T14:26:39;8.90;;;2.38;;
69841;SDS011;57138;51.326;-0.068;2023-04-03T14:29:04;7.63;;;2.67;;
69841;SDS011;57138;51.326;-0.068;2023-04-03T14:31:31;6.97;;;2.30;;
69841;SDS011;57138;51.326;-0.068;2023-04-03T14:33:56;9.02;;;2.10;;
69841;SDS011;57138;51.326;-0.068;2023-04-03T14:36:27;7.60;;;2.83;;
69841;SDS011;57138;51.326;-0.068;2023-04-03T14:38:53;4.50;;;2.15;;
69841;SDS011;57138;51.326;-0.068;2023-04-03T14:41:21;12.77;;;3.25;;
69841;SDS011;57138;51.326;-0.068;2023-04-03T14:43:48;6.63;;;2.25;;
69841;SDS011;57138;51.326;-0.068;2023-04-03T14:49:01;7.53;;;2.15;;
69841;SDS011;57138;51.326;-0.068;2023-04-03T14:51:32;8.68;;;2.20;;
69841;SDS011;57138;51.326;-0.068;2023-04-03T14:53:58;7.55;;;2.72;;
69841;SDS011;57138;51.326;-0.068;2023-04-03T14:56:25;7.88;;;2.63;;
69841;SDS011;57138;51.326;-0.068;2023-04-03T14:58:56;5.88;;;2.42;;
69841;SDS011;57138;51.326;-0.068;2023-04-03T15:01:24;8.30;;;2.58;;
69841;SDS011;57138;51.326;-0.068;2023-04-03T15:03:50;7.63;;;2.92;;
69841;SDS011;57138;51.326;-0.068;2023-04-03T15:06:16;10.13;;;3.75;;
69841;SDS011;57138;51.326;-0.068;2023-04-03T15:08:42;10.75;;;3.30;;
69841;SDS011;57138;51.326;-0.068;2023-04-03T15:11:09;5.15;;;2.30;;
69841;SDS011;57138;51.326;-0.068;2023-04-03T15:13:35;9.60;;;3.28;;
69841;SDS011;57138;51.326;-0.068;2023-04-03T15:16:01;8.48;;;3.35;;
69841;SDS011;57138;51.326;-0.068;2023-04-03T15:18:29;7.03;;;2.70;;
69841;SDS011;57138;51.326;-0.068;2023-04-03T15:21:00;10.25;;;3.63;;
69841;SDS011;57138;51.326;-0.068;2023-04-03T15:23:26;10.07;;;3.20;;
69841;SDS011;57138;51.326;-0.068;2023-04-03T15:25:53;9.25;;;3.50;;
69841;SDS011;57138;51.326;-0.068;2023-04-03T15:30:57;11.60;;;3.85;;
69841;SDS011;57138;51.326;-0.068;2023-04-03T15:33:23;11.02;;;4.50;;
69841;SDS011;57138;51.326;-0.068;2023-04-03T15:35:49;10.50;;;4.22;;
69841;SDS011;57138;51.326;-0.068;2023-04-03T15:38:15;12.35;;;5.07;;
69841;SDS011;57138;51.326;-0.068;2023-04-03T15:40:41;9.70;;;4.10;;
69841;SDS011;57138;51.326;-0.068;2023-04-03T15:43:08;8.18;;;4.20;;
69841;SDS011;57138;51.326;-0.068;2023-04-03T15:45:35;10.65;;;4.93;;
69841;SDS011;57138;51.326;-0.068;2023-04-03T15:48:02;9.80;;;4.15;;
69841;SDS011;57138;51.326;-0.068;2023-04-03T15:50:29;10.63;;;4.63;;
69841;SDS011;57138;51.326;-0.068;2023-04-03T15:52:55;7.80;;;3.95;;
69841;SDS011;57138;51.326;-0.068;2023-04-03T15:55:21;8.20;;;3.80;;
69841;SDS011;57138;51.326;-0.068;2023-04-03T15:57:47;14.90;;;6.20;;
69841;SDS011;57138;51.326;-0.068;2023-04-03T16:00:13;9.57;;;4.85;;
69841;SDS011;57138;51.326;-0.068;2023-04-03T16:02:39;9.30;;;3.80;;
69841;SDS011;57138;51.326;-0.068;2023-04-03T16:05:06;12.57;;;4.65;;
69841;SDS011;57138;51.326;-0.068;2023-04-03T16:07:32;11.98;;;3.22;;
69841;SDS011;57138;51.326;-0.068;2023-04-03T16:09:57;8.80;;;4.55;;
69841;SDS011;57138;51.326;-0.068;2023-04-03T16:12:23;7.10;;;3.95;;
69841;SDS011;57138;51.326;-0.068;2023-04-03T16:14:48;7.88;;;3.28;;
69841;SDS011;57138;51.326;-0.068;2023-04-03T16:17:14;11.65;;;3.45;;
69841;SDS011;57138;51.326;-0.068;2023-04-03T16:19:40;9.18;;;4.05;;
69841;SDS011;57138;51.326;-0.068;2023-04-03T16:22:05;11.77;;;3.10;;
69841;SDS011;57138;51.326;-0.068;2023-04-03T16:24:31;6.15;;;2.60;;
69841;SDS011;57138;51.326;-0.068;2023-04-03T16:26:57;9.02;;;3.30;;
69841;SDS011;57138;51.326;-0.068;2023-04-03T16:29:23;9.15;;;3.05;;
69841;SDS011;57138;51.326;-0.068;2023-04-03T16:31:48;8.00;;;3.13;;
69841;SDS011;57138;51.326;-0.068;2023-04-03T16:34:14;8.65;;;3.13;;
69841;SDS011;57138;51.326;-0.068;2023-04-03T16:36:41;6.95;;;2.60;;
69841;SDS011;57138;51.326;-0.068;2023-04-03T16:39:07;6.93;;;2.28;;
69841;SDS011;57138;51.326;-0.068;2023-04-03T16:41:35;7.40;;;2.65;;
69841;SDS011;57138;51.326;-0.068;2023-04-03T16:44:01;9.80;;;3.30;;
69841;SDS011;57138;51.326;-0.068;2023-04-03T16:46:27;8.50;;;2.85;;
69841;SDS011;57138;51.326;-0.068;2023-04-03T16:48:52;10.75;;;3.47;;